Vernal, UT

1:04 PM MST on February 20, 2017 (GMT -0700)
Vernal | | Change Station

Elev 5279 ft 40.44 °N, 109.51 °W | Updated 11 minutes ago

Partly Cloudy
Partly Cloudy
41 °F
Feels Like 39 °F
N
4
Wind Variable Wind from Variable

Today
High -- | Low -- °F
--% Chance of Precip.
Yesterday
High -- | Low -- °F
Precip. -- in
Pressure 30.19 in
Visibility 10.0 miles
Clouds Mostly Cloudy 1000 ft
Windchill 39 °F
Dew Point 35 °F
Humidity 79%
Rainfall 0.00 in
Snow Depth Not available.
7:04 AM 5:59 PM
Waning Crescent, 31% visible
METAR KVEL 201953Z AUTO VRB03KT 10SM BKN010 05/02 A3017 RMK AO2 SLP223 T00500017
Pressure 30.19 in
Visibility 10.0 miles
Clouds Mostly Cloudy 1000 ft
Windchill 39 °F
Dew Point 35 °F
Humidity 79%
Rainfall 0.00 in
Snow Depth Not available.
7:04 AM 5:59 PM
Waning Crescent, 31% visible
METAR KVEL 201953Z AUTO VRB03KT 10SM BKN010 05/02 A3017 RMK AO2 SLP223 T00500017

Get Your Daily Forecast Email!

Thanks for signing up!

Be on the lookout for a verification email in your inbox.

You'll start receiving the daily forecast at 8 AM.

×

10-Day Weather Forecast

Almanac

Astronomy

Feb. 20, 2017 Rise Set
Actual Time
Civil Twilight
Nautical Twilight
Astronomical Twilight
Moon
Length of Visible Light
Length of Day
Tomorrow will be .
, % of the Moon is Illuminated

Today's Extremes

State Highs State Lows

Community

WunderPhotos

Upload Photos

1,962,540 photos uploaded!

WunderBlog® & News

Nearby

Air Quality

  Air Quality AQ Index Pollutant
Not available.

Snow Depth

Station Depth Elevation

Earthquake Activity

City Distance Mag. Time & Date
Minimum magnitude displayed is 2.5.

Coastal Water Temperatures

Place Temperature

Stations

Nearby Weather Stations

Station Location Temp. Windchill Dew Point Humidity Wind Precip. Elev Updated Type
                   

Watches & Warnings

There are currently no watches in effect.